Duncan, AZ

12:57 AM MST on Abril 01, 2015 (GMT -0700)
Hideaway Observatory | | Change Station
CLOSE
Current Station
Personal Weather Stations
Location: Duncan, AZ
Elevation: 3814 ft
Nearby Weather Stations

Elev 3814 ft 32.76 °N, 109.07 °W | Updated 2 seconds ago

Clear
Clear
62.2 °F
Feels Like 62.2 °F
N
2.0
Hangin Variable Hangin from NE
Gusts 5.0 mph

Ngayon
High -- | Low -- °F
--% Chance of Precip.
Yesterday
High -- | Low -- °F
Precip. -- sa
6:04 AM 6:36 PM
Waxing Gibbous, 91% visible
Pwersa 29.81 sa
Paningin 10.0 milya
Mga Ulap Clear
Hamog 43 °F
Humidito 50%
Rainfall 0.00 sa
Snow Depth Not available.
UV 0 out of 12
Pollen 10.40 out of 12
Air Quality Not available.
Flu Activity Not available.
METAR KSAD 010751Z AUTO 35006KT 10SM CLR 18/00 A2995 RMK AO2 SLP094 T01830000

More Conditions Fewer Conditions

Pwersa 29.81 sa
Paningin 10.0 milya
Mga Ulap Clear
Hamog 43 °F
Humidito 50%
Rainfall 0.00 sa
Snow Depth Not available.
UV 0 out of 12
Pollen 10.40 out of 12
Air Quality Not available.
Flu Activity Not available.
METAR KSAD 010751Z AUTO 35006KT 10SM CLR 18/00 A2995 RMK AO2 SLP094 T01830000

More Conditions Fewer Conditions

10-Day Weather Forecast

Almanac

Astronomiya

Apr. 01, 2015 Rise Set
Actual Time
Civil Twilight
Nautical Twilight
Astronomical Twilight
Buwan
Length Of Visible Light
Haba ng Araw
Tomorrow will be .
, % of the Moon is Illuminated

Today's Extremes

State Highs State Lows

Community

WunderPhotos

Upload Photos

1,809,930 photos uploaded!

WunderBlogs® & News

Nearby

Air Quality

  Air Quality AQ Index Pollutant
Not available.

Snow Depth

Station Depth Elevation

Earthquake Activity

Siyudad Distance Mag. Time & Date
Minimum magnitude displayed is 2.5.

Coastal Water Temperatures

lugar Temparatura

Stations

Nearby Weather Stations

Station Location Temp Windchill Hamog Humidito Hangin Precip. Elev Bago Type